createdAt,value
2022-10-04T00:01:58.393Z,2.05
2022-10-04T00:04:40.795Z,3.53
2022-10-04T00:09:57.634Z,1.90
2022-10-04T00:12:31.479Z,1.75
2022-10-04T00:15:05.401Z,1.50
2022-10-04T00:17:37.150Z,1.67
2022-10-04T00:23:23.160Z,2.10
2022-10-04T00:25:53.596Z,2.38
2022-10-04T00:28:22.176Z,2.28
2022-10-04T00:31:46.959Z,2.50
2022-10-04T00:34:15.338Z,2.50
2022-10-04T00:36:55.977Z,3.13
2022-10-04T00:39:40.556Z,2.70
2022-10-04T00:42:30.062Z,2.78
2022-10-04T00:45:19.503Z,2.80
2022-10-04T00:47:47.611Z,2.50
2022-10-04T00:50:22.192Z,2.90
2022-10-04T00:52:57.098Z,3.45
2022-10-04T00:55:28.385Z,7.00
2022-10-04T00:58:03.633Z,9.40
2022-10-04T01:00:33.925Z,10.10
2022-10-04T01:03:12.535Z,8.23
2022-10-04T01:05:55.931Z,6.18
2022-10-04T01:09:05.613Z,3.92
2022-10-04T01:11:45.662Z,4.18
2022-10-04T01:14:21.325Z,4.93
2022-10-04T01:16:51.857Z,4.25
2022-10-04T01:19:39.002Z,4.65
2022-10-04T01:22:14.705Z,3.92
2022-10-04T01:24:46.074Z,3.53
2022-10-04T01:27:35.156Z,4.18
2022-10-04T01:30:09.552Z,4.78
2022-10-04T01:32:40.184Z,3.65
2022-10-04T01:35:13.836Z,2.95
2022-10-04T01:37:42.322Z,2.83
2022-10-04T01:40:11.675Z,2.75
2022-10-04T01:42:48.910Z,2.50
2022-10-04T01:45:26.867Z,2.60
2022-10-04T01:47:59.539Z,2.60
2022-10-04T01:50:39.797Z,2.30
2022-10-04T01:53:32.869Z,2.55
2022-10-04T01:56:14.498Z,3.15
2022-10-04T01:58:54.129Z,3.22
2022-10-04T02:01:31.336Z,2.88
2022-10-04T02:04:21.333Z,3.70
2022-10-04T02:06:55.077Z,4.07
2022-10-04T02:09:36.007Z,4.63
2022-10-04T02:12:06.233Z,5.38
2022-10-04T02:17:10.592Z,5.80
2022-10-04T02:19:41.603Z,5.85
2022-10-04T02:22:11.905Z,6.50
2022-10-04T02:24:45.163Z,5.53
2022-10-04T02:27:14.257Z,4.60
2022-10-04T02:29:43.014Z,3.67
2022-10-04T02:32:32.606Z,2.80
2022-10-04T02:35:04.095Z,2.92
2022-10-04T02:37:32.508Z,4.00
2022-10-04T02:40:13.328Z,5.07
2022-10-04T02:42:50.156Z,4.50
2022-10-04T02:45:39.883Z,4.45
2022-10-04T02:48:32.953Z,6.03
2022-10-04T02:51:15.543Z,6.43
2022-10-04T02:54:02.312Z,4.22
2022-10-04T02:56:33.387Z,3.50
2022-10-04T02:59:06.806Z,4.03
2022-10-04T03:01:41.966Z,4.40
2022-10-04T03:04:15.216Z,4.78
2022-10-04T03:06:46.193Z,4.43
2022-10-04T03:09:15.674Z,4.03
2022-10-04T03:11:44.547Z,3.88
2022-10-04T03:14:18.798Z,3.85
2022-10-04T03:16:50.893Z,3.45
2022-10-04T03:19:21.722Z,2.80
2022-10-04T03:21:53.390Z,3.33
2022-10-04T03:24:30.931Z,4.90
2022-10-04T03:27:03.125Z,4.70
2022-10-04T03:29:34.104Z,6.22
2022-10-04T03:32:04.927Z,6.22
2022-10-04T03:34:41.807Z,5.60
2022-10-04T03:37:16.511Z,5.75
2022-10-04T03:39:48.157Z,5.25
2022-10-04T03:42:20.001Z,4.20
2022-10-04T03:44:51.661Z,5.28
2022-10-04T03:47:25.778Z,4.60
2022-10-04T03:49:56.302Z,4.10
2022-10-04T03:52:27.278Z,3.95
2022-10-04T03:55:00.692Z,4.65
2022-10-04T03:57:30.463Z,6.00
2022-10-04T03:59:59.394Z,4.93
2022-10-04T04:02:40.342Z,4.97
2022-10-04T04:05:30.752Z,5.63
2022-10-04T04:08:17.904Z,6.13
2022-10-04T04:10:59.344Z,6.72
2022-10-04T04:13:37.181Z,6.00
2022-10-04T04:16:06.617Z,6.75
2022-10-04T04:18:38.737Z,7.07
2022-10-04T04:21:08.685Z,4.72
2022-10-04T04:23:44.851Z,3.67
2022-10-04T04:26:42.522Z,3.45
2022-10-04T04:29:26.140Z,3.65
2022-10-04T04:32:00.256Z,4.07
2022-10-04T04:34:32.149Z,4.50
2022-10-04T04:39:34.536Z,3.53
2022-10-04T04:42:10.500Z,4.15
2022-10-04T04:44:57.034Z,3.75
2022-10-04T04:47:34.748Z,3.47
2022-10-04T04:50:21.215Z,3.53
2022-10-04T04:52:56.058Z,3.60
2022-10-04T04:55:50.097Z,3.60
2022-10-04T04:58:26.534Z,4.07
2022-10-04T05:01:00.922Z,4.40
2022-10-04T05:03:31.617Z,4.85
2022-10-04T05:06:05.262Z,5.93
2022-10-04T05:08:40.431Z,6.85
2022-10-04T05:11:39.827Z,7.68
2022-10-04T05:14:12.623Z,6.00
2022-10-04T05:16:53.750Z,5.47
2022-10-04T05:19:31.719Z,4.10
2022-10-04T05:22:07.321Z,4.20
2022-10-04T05:24:42.849Z,4.63
2022-10-04T05:27:43.753Z,3.65
2022-10-04T05:30:30.813Z,4.18
2022-10-04T05:33:37.188Z,4.20
2022-10-04T05:36:42.208Z,4.15
2022-10-04T05:39:24.745Z,7.15
2022-10-04T05:42:12.836Z,7.93
2022-10-04T05:44:52.397Z,9.32
2022-10-04T05:47:26.900Z,9.95
2022-10-04T05:50:00.263Z,8.88
2022-10-04T05:52:38.798Z,10.00
2022-10-04T05:55:16.532Z,9.75
2022-10-04T05:57:57.273Z,9.18
2022-10-04T06:01:04.133Z,10.38
2022-10-04T06:03:57.323Z,10.98
2022-10-04T06:06:58.778Z,10.13
2022-10-04T06:09:50.654Z,7.68
2022-10-04T06:13:00.590Z,6.88
2022-10-04T06:15:37.693Z,5.25
2022-10-04T06:18:20.196Z,4.25
2022-10-04T06:21:13.425Z,4.20
2022-10-04T06:24:00.551Z,5.15
2022-10-04T06:26:45.116Z,6.90
2022-10-04T06:29:22.264Z,8.15
2022-10-04T06:31:59.864Z,8.68
2022-10-04T06:34:46.946Z,8.40
2022-10-04T06:37:55.211Z,7.35
2022-10-04T06:40:40.946Z,7.50
2022-10-04T06:43:59.838Z,6.90
2022-10-04T06:46:39.175Z,5.32
2022-10-04T06:49:28.804Z,5.50
2022-10-04T06:52:38.815Z,4.97
2022-10-04T06:55:55.358Z,4.35
2022-10-04T06:58:42.259Z,4.40
2022-10-04T07:01:26.572Z,4.65
2022-10-04T07:04:16.352Z,5.00
2022-10-04T07:07:21.090Z,3.72
2022-10-04T07:10:00.371Z,3.42
2022-10-04T07:12:32.177Z,3.35
2022-10-04T07:15:05.139Z,3.80
2022-10-04T07:17:39.112Z,3.20
2022-10-04T07:20:19.683Z,3.05
2022-10-04T07:23:02.595Z,3.00
2022-10-04T07:25:36.501Z,3.17
2022-10-04T07:28:34.074Z,2.80
2022-10-04T07:31:13.593Z,2.78
2022-10-04T07:33:51.807Z,2.42
2022-10-04T07:36:24.772Z,2.20
2022-10-04T07:39:07.077Z,2.35
2022-10-04T07:41:46.389Z,2.20
2022-10-04T07:44:24.465Z,1.85
2022-10-04T07:47:14.941Z,2.30
2022-10-04T07:49:43.611Z,2.55
2022-10-04T07:52:21.861Z,2.13
2022-10-04T07:54:58.203Z,1.85
2022-10-04T07:57:40.212Z,1.70
2022-10-04T08:00:22.883Z,2.08
2022-10-04T08:03:00.370Z,1.55
2022-10-04T08:05:35.783Z,2.08
2022-10-04T08:08:18.002Z,1.70
2022-10-04T08:11:08.850Z,2.20
2022-10-04T08:13:42.982Z,1.98
2022-10-04T08:16:36.662Z,1.83
2022-10-04T08:19:08.838Z,1.63
2022-10-04T08:22:27.842Z,1.80
2022-10-04T08:25:23.743Z,1.80
2022-10-04T08:28:26.435Z,1.30
2022-10-04T08:33:56.584Z,1.70
2022-10-04T08:36:49.389Z,1.25
2022-10-04T08:39:38.571Z,1.40
2022-10-04T08:42:22.451Z,1.20
2022-10-04T08:45:29.301Z,1.02
2022-10-04T08:48:24.614Z,1.05
2022-10-04T08:51:30.505Z,1.17
2022-10-04T08:54:05.112Z,1.40
2022-10-04T08:56:46.786Z,1.02
2022-10-04T08:59:43.065Z,0.98
2022-10-04T09:02:43.565Z,1.05
2022-10-04T09:05:42.285Z,1.15
2022-10-04T09:08:46.368Z,1.17
2022-10-04T09:11:34.199Z,1.10
2022-10-04T09:14:36.917Z,0.88
2022-10-04T09:20:37.383Z,1.15
2022-10-04T09:23:09.590Z,0.90
2022-10-04T09:26:01.409Z,0.93
2022-10-04T09:28:53.834Z,1.08
2022-10-04T09:31:48.990Z,1.27
2022-10-04T09:34:37.783Z,1.20
2022-10-04T09:37:43.805Z,1.00
2022-10-04T09:40:54.128Z,1.20
2022-10-04T09:43:31.974Z,1.20
2022-10-04T09:46:07.990Z,0.60
2022-10-04T09:49:21.875Z,1.05
2022-10-04T09:52:18.057Z,1.10
2022-10-04T09:55:10.165Z,1.27
2022-10-04T09:58:05.923Z,1.15
2022-10-04T10:01:00.500Z,1.20
2022-10-04T10:03:57.330Z,1.30
2022-10-04T10:06:41.515Z,1.10
2022-10-04T10:09:49.646Z,1.00
2022-10-04T10:12:48.988Z,1.10
2022-10-04T10:15:27.770Z,0.88
2022-10-04T10:18:52.366Z,1.05
2022-10-04T10:21:42.310Z,1.30
2022-10-04T10:24:32.852Z,0.70
2022-10-04T10:27:44.127Z,0.80
2022-10-04T10:30:41.076Z,0.73
2022-10-04T10:33:20.733Z,1.10
2022-10-04T10:36:11.153Z,0.90
2022-10-04T10:39:12.188Z,1.13
2022-10-04T10:42:27.753Z,1.00
2022-10-04T10:44:56.871Z,1.05
2022-10-04T10:48:01.794Z,1.00
2022-10-04T10:51:08.549Z,1.00
2022-10-04T10:54:17.943Z,1.20
2022-10-04T10:57:21.599Z,0.90
2022-10-04T11:00:18.209Z,1.10
2022-10-04T11:03:32.388Z,1.33
2022-10-04T11:06:22.781Z,0.80
2022-10-04T11:09:27.449Z,0.82
2022-10-04T11:12:30.015Z,0.80
2022-10-04T11:15:28.783Z,1.00
2022-10-04T11:18:16.575Z,0.98
2022-10-04T11:21:25.910Z,1.10
2022-10-04T11:24:21.246Z,1.10
2022-10-04T11:27:11.457Z,0.75
2022-10-04T11:29:56.748Z,0.80
2022-10-04T11:33:01.322Z,0.95
2022-10-04T11:35:44.633Z,0.80
2022-10-04T11:38:35.899Z,0.95
2022-10-04T11:41:16.076Z,1.10
2022-10-04T11:44:05.875Z,1.20
2022-10-04T11:47:01.066Z,0.90
2022-10-04T11:49:44.702Z,0.90
2022-10-04T11:52:41.425Z,1.10
2022-10-04T11:55:37.649Z,1.00
2022-10-04T11:58:53.344Z,0.70
2022-10-04T12:01:52.476Z,0.80
2022-10-04T12:04:40.952Z,1.10
2022-10-04T12:07:43.784Z,0.80
2022-10-04T12:11:21.241Z,1.40
2022-10-04T12:14:40.936Z,0.70
2022-10-04T12:17:11.555Z,0.68
2022-10-04T12:20:12.480Z,1.40
2022-10-04T12:23:00.899Z,0.60
2022-10-04T12:25:55.089Z,0.90
2022-10-04T12:29:05.137Z,1.00
2022-10-04T12:32:00.704Z,0.82
2022-10-04T12:34:32.580Z,0.90
2022-10-04T12:37:14.209Z,0.77
2022-10-04T12:42:54.433Z,1.00
2022-10-04T12:45:40.826Z,0.93
2022-10-04T12:48:23.289Z,0.90
2022-10-04T12:51:39.725Z,0.98
2022-10-04T12:54:17.624Z,1.10
2022-10-04T12:57:04.534Z,1.00
2022-10-04T12:59:45.755Z,1.05
2022-10-04T13:02:42.186Z,0.88
2022-10-04T13:05:22.887Z,0.90
2022-10-04T13:08:32.001Z,0.93
2022-10-04T13:11:16.501Z,0.93
2022-10-04T13:14:06.155Z,0.70
2022-10-04T13:19:51.027Z,1.02
2022-10-04T13:22:56.065Z,0.80
2022-10-04T13:25:45.358Z,1.27
2022-10-04T13:31:24.589Z,1.00
2022-10-04T13:34:16.101Z,1.15
2022-10-04T13:36:56.106Z,0.95
2022-10-04T13:39:44.821Z,0.70
2022-10-04T13:42:45.519Z,0.93
2022-10-04T13:45:48.463Z,0.93
2022-10-04T13:48:34.956Z,0.95
2022-10-04T13:51:24.312Z,1.00
2022-10-04T13:54:58.659Z,1.00
2022-10-04T13:58:01.989Z,0.98
2022-10-04T14:01:17.010Z,0.88
2022-10-04T14:04:55.016Z,1.02
2022-10-04T14:11:10.862Z,1.00
2022-10-04T14:14:21.829Z,1.00
2022-10-04T14:17:30.725Z,1.10
2022-10-04T14:20:36.285Z,1.25
2022-10-04T14:23:54.912Z,1.00
2022-10-04T14:27:22.561Z,1.10
2022-10-04T14:30:20.357Z,0.90
2022-10-04T14:32:58.255Z,1.10
2022-10-04T14:35:30.713Z,1.00
2022-10-04T14:38:24.529Z,1.00
2022-10-04T14:41:54.415Z,1.10
2022-10-04T14:44:58.750Z,0.90
2022-10-04T14:47:58.462Z,1.10
2022-10-04T14:50:51.113Z,1.08
2022-10-04T14:54:08.364Z,1.13
2022-10-04T14:57:21.083Z,1.20
2022-10-04T15:00:04.848Z,1.45
2022-10-04T15:02:35.139Z,1.10
2022-10-04T15:05:59.930Z,1.17
2022-10-04T15:08:57.177Z,1.00
2022-10-04T15:12:25.598Z,1.17
2022-10-04T15:15:02.123Z,1.00
2022-10-04T15:17:58.081Z,1.02
2022-10-04T15:20:39.614Z,1.25
2022-10-04T15:23:40.962Z,1.30
2022-10-04T15:26:21.807Z,1.17
2022-10-04T15:28:56.969Z,1.35
2022-10-04T15:32:16.119Z,3.38
2022-10-04T15:35:07.655Z,1.30
2022-10-04T15:37:44.371Z,1.40
2022-10-04T15:40:41.479Z,2.47
2022-10-04T15:43:44.851Z,1.63
2022-10-04T15:46:49.750Z,1.35
2022-10-04T15:49:49.151Z,1.58
2022-10-04T15:52:59.382Z,1.20
2022-10-04T15:55:36.989Z,2.13
2022-10-04T15:58:31.318Z,2.53
2022-10-04T16:01:19.989Z,2.80
2022-10-04T16:04:14.005Z,3.47
2022-10-04T16:06:55.550Z,4.65
2022-10-04T16:09:46.649Z,7.22
2022-10-04T16:12:33.205Z,7.80
2022-10-04T16:15:16.127Z,6.50
2022-10-04T16:17:45.263Z,4.95
2022-10-04T16:20:28.184Z,5.67
2022-10-04T16:23:28.496Z,3.92
2022-10-04T16:26:24.913Z,2.38
2022-10-04T16:29:13.805Z,2.40
2022-10-04T16:31:52.028Z,2.60
2022-10-04T16:34:59.052Z,3.10
2022-10-04T16:37:43.003Z,3.25
2022-10-04T16:40:35.388Z,4.60
2022-10-04T16:43:23.739Z,5.03
2022-10-04T16:46:11.369Z,9.82
2022-10-04T16:49:06.851Z,8.40
2022-10-04T16:51:50.920Z,7.10
2022-10-04T16:54:58.258Z,6.55
2022-10-04T16:57:28.184Z,7.10
2022-10-04T17:00:00.914Z,7.35
2022-10-04T17:02:51.414Z,7.15
2022-10-04T17:05:39.969Z,8.75
2022-10-04T17:08:43.576Z,12.02
2022-10-04T17:11:43.261Z,12.60
2022-10-04T17:14:46.716Z,10.95
2022-10-04T17:17:31.873Z,10.70
2022-10-04T17:20:15.320Z,11.30
2022-10-04T17:23:09.569Z,11.05
2022-10-04T17:26:01.551Z,10.20
2022-10-04T17:28:41.892Z,10.35
2022-10-04T17:31:27.573Z,9.15
2022-10-04T17:34:08.219Z,12.60
2022-10-04T17:36:46.563Z,10.85
2022-10-04T17:39:35.136Z,14.63
2022-10-04T17:42:33.905Z,14.88
2022-10-04T17:45:34.487Z,19.02
2022-10-04T17:48:33.006Z,21.17
2022-10-04T17:51:50.019Z,18.52
2022-10-04T17:55:08.745Z,16.58
2022-10-04T17:57:45.359Z,18.27
2022-10-04T18:00:24.192Z,18.02
2022-10-04T18:03:09.125Z,19.40
2022-10-04T18:06:02.631Z,19.05
2022-10-04T18:09:01.107Z,17.00
2022-10-04T18:11:42.000Z,14.57
2022-10-04T18:14:43.239Z,17.02
2022-10-04T18:17:26.899Z,15.20
2022-10-04T18:20:33.463Z,16.27
2022-10-04T18:27:07.983Z,15.07
2022-10-04T18:29:46.583Z,16.20
2022-10-04T18:32:28.227Z,13.77
2022-10-04T18:35:27.088Z,15.23
2022-10-04T18:38:17.178Z,17.65
2022-10-04T18:40:57.266Z,15.10
2022-10-04T18:43:36.024Z,16.25
2022-10-04T18:46:26.682Z,15.80
2022-10-04T18:49:17.730Z,14.63
2022-10-04T18:52:15.211Z,18.08
2022-10-04T18:55:14.428Z,18.33
2022-10-04T19:01:41.122Z,15.77
2022-10-04T19:04:31.011Z,16.75
2022-10-04T19:07:13.376Z,11.25
2022-10-04T19:10:02.745Z,17.33
2022-10-04T19:13:19.252Z,15.80
2022-10-04T19:16:10.682Z,13.68
2022-10-04T19:19:07.840Z,15.30
2022-10-04T19:21:51.158Z,13.15
2022-10-04T19:24:39.160Z,14.88
2022-10-04T19:27:36.743Z,15.90
2022-10-04T19:30:49.262Z,12.90
2022-10-04T19:33:42.072Z,16.77
2022-10-04T19:36:22.382Z,12.23
2022-10-04T19:39:23.131Z,16.85
2022-10-04T19:42:04.964Z,17.30
2022-10-04T19:47:19.888Z,24.90
2022-10-04T19:50:19.481Z,30.30
2022-10-04T19:52:54.252Z,30.42
2022-10-04T19:55:58.915Z,30.60
2022-10-04T19:58:58.677Z,51.53
2022-10-04T20:04:43.124Z,46.75
2022-10-04T20:07:15.437Z,52.40
2022-10-04T20:13:04.111Z,50.03
2022-10-04T20:15:35.583Z,49.20
2022-10-04T20:18:42.271Z,46.65
2022-10-04T20:21:26.494Z,47.55
2022-10-04T20:24:41.647Z,41.70
2022-10-04T20:27:33.633Z,26.80
2022-10-04T20:30:14.433Z,23.40
2022-10-04T20:32:42.811Z,28.92
2022-10-04T20:35:14.246Z,27.15
2022-10-04T20:37:45.685Z,27.63
2022-10-04T20:40:26.853Z,29.80
2022-10-04T20:43:14.382Z,34.05
2022-10-04T20:45:57.311Z,30.85
2022-10-04T20:48:27.926Z,25.15
2022-10-04T20:51:06.714Z,24.35
2022-10-04T20:53:46.907Z,29.95
2022-10-04T20:56:37.257Z,28.80
2022-10-04T20:59:12.239Z,31.83
2022-10-04T21:02:09.074Z,25.33
2022-10-04T21:05:01.216Z,21.25
2022-10-04T21:10:20.360Z,26.33
2022-10-04T21:12:59.030Z,30.23
2022-10-04T21:15:27.412Z,22.85
2022-10-04T21:18:02.051Z,19.40
2022-10-04T21:24:41.692Z,22.67
2022-10-04T21:27:12.405Z,16.20
2022-10-04T21:29:41.232Z,14.90
2022-10-04T21:32:09.631Z,13.90
2022-10-04T21:34:54.464Z,15.30
2022-10-04T21:37:25.435Z,13.13
2022-10-04T21:39:53.891Z,15.77
2022-10-04T21:42:23.490Z,11.98
2022-10-04T21:44:52.214Z,13.30
2022-10-04T21:47:23.929Z,15.13
2022-10-04T21:49:52.500Z,12.75
2022-10-04T21:52:22.251Z,14.20
2022-10-04T21:54:51.405Z,13.50
2022-10-04T21:57:19.863Z,13.95
2022-10-04T21:59:48.152Z,15.00
2022-10-04T22:02:18.501Z,13.38
2022-10-04T22:04:46.845Z,12.98
2022-10-04T22:07:15.082Z,10.93
2022-10-04T22:09:43.680Z,14.57
2022-10-04T22:12:12.102Z,19.27
2022-10-04T22:14:40.978Z,17.45
2022-10-04T22:17:34.488Z,15.70
2022-10-04T22:20:09.012Z,16.02
2022-10-04T22:22:39.798Z,10.82
2022-10-04T22:25:20.837Z,10.82
2022-10-04T22:27:52.142Z,10.18
2022-10-04T22:30:26.146Z,9.77
2022-10-04T22:32:58.187Z,9.18
2022-10-04T22:35:30.294Z,9.70
2022-10-04T22:38:00.453Z,10.25
2022-10-04T22:40:29.722Z,9.40
2022-10-04T22:43:00.924Z,9.95
2022-10-04T22:45:33.559Z,9.45
2022-10-04T22:48:15.545Z,9.25
2022-10-04T22:50:43.923Z,9.57
2022-10-04T22:53:20.044Z,9.32
2022-10-04T22:55:49.670Z,9.52
2022-10-04T22:58:21.178Z,9.40
2022-10-04T23:00:49.785Z,10.13
2022-10-04T23:03:31.143Z,9.88
2022-10-04T23:06:00.622Z,9.65
2022-10-04T23:08:30.419Z,9.20
2022-10-04T23:11:00.657Z,9.80
2022-10-04T23:13:29.027Z,10.27
2022-10-04T23:16:10.949Z,9.57
2022-10-04T23:18:39.932Z,10.02
2022-10-04T23:21:32.236Z,9.77
2022-10-04T23:24:22.445Z,10.25
2022-10-04T23:26:56.591Z,9.43
2022-10-04T23:29:27.985Z,10.05
2022-10-04T23:31:57.591Z,9.90
2022-10-04T23:34:38.078Z,8.68
2022-10-04T23:37:38.004Z,9.15
2022-10-04T23:40:14.667Z,9.38
2022-10-04T23:42:44.855Z,8.57
2022-10-04T23:45:42.258Z,8.52
2022-10-04T23:48:24.318Z,8.18
2022-10-04T23:51:00.206Z,8.55
2022-10-04T23:53:33.556Z,8.40
2022-10-04T23:56:30.159Z,8.93
2022-10-04T23:58:59.610Z,8.02
